createdAt,value
2023-05-09T00:02:48.010Z,3.69
2023-05-09T00:07:50.523Z,3.67
2023-05-09T00:12:57.109Z,3.67
2023-05-09T00:17:59.506Z,3.66
2023-05-09T00:23:02.657Z,3.67
2023-05-09T00:28:05.805Z,3.63
2023-05-09T00:33:08.189Z,3.61
2023-05-09T00:38:29.908Z,3.54
2023-05-09T00:43:39.976Z,3.46
2023-05-09T00:48:42.473Z,3.39
2023-05-09T00:53:45.745Z,3.34
2023-05-09T00:59:10.703Z,3.30
2023-05-09T01:04:18.944Z,3.25
2023-05-09T01:10:00.250Z,3.20
2023-05-09T01:15:26.950Z,3.16
2023-05-09T01:20:56.557Z,3.10
2023-05-09T01:26:19.683Z,3.06
2023-05-09T01:31:43.613Z,3.00
2023-05-09T01:36:54.224Z,2.94
2023-05-09T01:42:01.300Z,2.88
2023-05-09T01:47:04.482Z,2.83
2023-05-09T01:52:20.228Z,2.79
2023-05-09T01:57:32.480Z,2.76
2023-05-09T02:02:38.228Z,2.73
2023-05-09T02:07:42.409Z,2.73
2023-05-09T02:12:50.528Z,2.74
2023-05-09T02:18:12.062Z,2.70
2023-05-09T02:23:25.180Z,2.64
2023-05-09T02:28:31.840Z,2.56
2023-05-09T02:33:39.657Z,2.48
2023-05-09T02:38:43.185Z,2.41
2023-05-09T02:43:49.632Z,2.37
2023-05-09T02:48:52.786Z,2.43
2023-05-09T02:54:15.612Z,2.49
2023-05-09T02:59:20.202Z,2.53
2023-05-09T03:04:31.422Z,2.58
2023-05-09T03:09:39.235Z,2.57
2023-05-09T03:14:47.646Z,2.56
2023-05-09T03:19:53.354Z,2.55
2023-05-09T03:24:56.717Z,2.54
2023-05-09T03:30:07.417Z,2.55
2023-05-09T03:35:45.509Z,2.59
2023-05-09T03:41:44.280Z,2.73
2023-05-09T03:47:12.677Z,2.86
2023-05-09T03:52:21.254Z,2.98
2023-05-09T03:57:36.129Z,3.09
2023-05-09T04:02:47.405Z,3.20
2023-05-09T04:08:00.864Z,3.32
2023-05-09T04:13:16.327Z,3.43
2023-05-09T04:18:51.190Z,3.56
2023-05-09T04:23:53.815Z,3.66
2023-05-09T04:29:27.414Z,3.83
2023-05-09T04:34:35.879Z,4.04
2023-05-09T04:39:58.650Z,4.23
2023-05-09T04:45:13.720Z,4.46
2023-05-09T04:50:27.012Z,4.70
2023-05-09T04:55:39.421Z,4.89
2023-05-09T05:00:47.938Z,5.08
2023-05-09T05:05:54.088Z,5.29
2023-05-09T05:11:00.060Z,5.53
2023-05-09T05:16:22.538Z,5.82
2023-05-09T05:21:40.798Z,6.02
2023-05-09T05:26:50.165Z,6.24
2023-05-09T05:32:20.169Z,6.49
2023-05-09T05:37:33.410Z,6.72
2023-05-09T05:42:38.560Z,6.96
2023-05-09T05:48:06.276Z,7.26
2023-05-09T05:53:08.814Z,7.51
2023-05-09T05:58:16.649Z,7.78
2023-05-09T06:03:22.387Z,8.13
2023-05-09T06:08:41.743Z,8.46
2023-05-09T06:13:50.646Z,8.75
2023-05-09T06:19:11.514Z,8.95
2023-05-09T06:24:35.785Z,9.14
2023-05-09T06:30:23.731Z,9.28
2023-05-09T06:35:36.604Z,9.42
2023-05-09T06:40:52.924Z,9.54
2023-05-09T06:46:06.922Z,9.68
2023-05-09T06:51:22.275Z,9.86
2023-05-09T06:56:33.645Z,10.01
2023-05-09T07:01:45.475Z,10.15
2023-05-09T07:06:56.218Z,10.28
2023-05-09T07:12:01.116Z,10.46
2023-05-09T07:17:21.376Z,10.63
2023-05-09T07:22:30.731Z,10.81
2023-05-09T07:27:40.998Z,11.06
2023-05-09T07:32:55.949Z,11.24
2023-05-09T07:38:14.029Z,11.40
2023-05-09T07:43:21.487Z,11.55
2023-05-09T07:48:38.899Z,11.73
2023-05-09T07:53:41.430Z,11.88
2023-05-09T07:58:43.523Z,12.01
2023-05-09T08:03:45.959Z,12.19
2023-05-09T08:08:48.872Z,12.30
2023-05-09T08:13:51.665Z,12.37
2023-05-09T08:19:00.516Z,12.51
2023-05-09T08:24:10.605Z,12.60
2023-05-09T08:29:20.905Z,12.82
2023-05-09T08:34:34.666Z,13.06
2023-05-09T08:39:37.440Z,13.26
2023-05-09T08:44:39.466Z,13.34
2023-05-09T08:49:45.638Z,13.39
2023-05-09T08:54:53.430Z,13.47
2023-05-09T08:59:56.822Z,13.54
2023-05-09T09:04:59.044Z,13.64
2023-05-09T09:10:12.252Z,13.74
2023-05-09T09:15:20.259Z,13.89
2023-05-09T09:20:34.467Z,14.00
2023-05-09T09:25:39.632Z,14.08
2023-05-09T09:30:53.607Z,14.10
2023-05-09T09:35:57.182Z,14.23
2023-05-09T09:40:59.857Z,14.31
2023-05-09T09:46:10.683Z,14.32
2023-05-09T09:51:13.171Z,14.31
2023-05-09T09:56:15.248Z,14.37
2023-05-09T10:01:26.458Z,14.60
2023-05-09T10:06:28.959Z,14.86
2023-05-09T10:11:38.617Z,15.09
2023-05-09T10:16:44.849Z,15.20
2023-05-09T10:21:55.914Z,15.36
2023-05-09T10:27:06.877Z,15.64
2023-05-09T10:32:21.273Z,15.89
2023-05-09T10:37:31.651Z,16.16
2023-05-09T10:42:36.174Z,16.39
2023-05-09T10:47:42.702Z,16.69
2023-05-09T10:53:17.241Z,16.99
2023-05-09T10:58:40.482Z,17.16
2023-05-09T11:03:57.994Z,17.16
2023-05-09T11:09:25.256Z,17.38
2023-05-09T11:14:38.222Z,17.38
2023-05-09T11:19:51.548Z,17.17
2023-05-09T11:25:25.979Z,17.09
2023-05-09T11:30:45.612Z,17.09
2023-05-09T11:35:48.495Z,16.81
2023-05-09T11:40:52.214Z,16.90
2023-05-09T11:45:55.256Z,17.17
2023-05-09T11:51:05.908Z,17.46
2023-05-09T11:56:14.097Z,17.76
2023-05-09T12:01:25.686Z,18.03
2023-05-09T12:06:31.079Z,18.04
2023-05-09T12:11:37.088Z,18.13
2023-05-09T12:16:48.606Z,18.20
2023-05-09T12:21:56.695Z,18.18
2023-05-09T12:27:12.382Z,18.26
2023-05-09T12:32:41.919Z,18.35
2023-05-09T12:38:06.682Z,18.37
2023-05-09T12:43:14.942Z,18.48
2023-05-09T12:48:24.127Z,18.49
2023-05-09T12:53:36.674Z,18.48
2023-05-09T12:59:15.766Z,18.53
2023-05-09T13:04:29.642Z,18.58
2023-05-09T13:09:34.297Z,18.57
2023-05-09T13:14:36.559Z,18.66
2023-05-09T13:19:54.414Z,18.81
2023-05-09T13:25:06.625Z,18.71
2023-05-09T13:30:21.784Z,18.64
2023-05-09T13:35:43.207Z,18.42
2023-05-09T13:40:56.939Z,18.24
2023-05-09T13:46:02.343Z,18.30
2023-05-09T13:51:07.373Z,18.46
2023-05-09T13:56:12.399Z,18.80
2023-05-09T14:01:16.756Z,18.81
2023-05-09T14:06:22.139Z,18.56
2023-05-09T14:11:31.275Z,18.46
2023-05-09T14:16:43.980Z,18.63
2023-05-09T14:21:48.538Z,18.78
2023-05-09T14:27:00.241Z,18.73
2023-05-09T14:32:14.255Z,18.39
2023-05-09T14:37:25.059Z,18.22
2023-05-09T14:42:33.041Z,18.14
2023-05-09T14:47:42.641Z,18.09
2023-05-09T14:52:46.177Z,18.14
2023-05-09T14:57:53.216Z,18.17
2023-05-09T15:03:07.174Z,18.12
2023-05-09T15:08:19.767Z,18.11
2023-05-09T15:13:22.407Z,18.06
2023-05-09T15:18:28.705Z,17.96
2023-05-09T15:23:34.838Z,17.93
2023-05-09T15:28:57.150Z,17.90
2023-05-09T15:34:17.111Z,17.88
2023-05-09T15:39:37.780Z,17.88
2023-05-09T15:44:41.106Z,17.81
2023-05-09T15:49:52.446Z,17.75
2023-05-09T15:54:58.363Z,17.69
2023-05-09T16:00:07.180Z,17.67
2023-05-09T16:05:27.433Z,17.64
2023-05-09T16:10:36.297Z,17.53
2023-05-09T16:15:41.757Z,17.42
2023-05-09T16:20:54.975Z,17.35
2023-05-09T16:26:00.850Z,17.30
2023-05-09T16:31:08.718Z,17.19
2023-05-09T16:36:22.134Z,17.06
2023-05-09T16:41:24.897Z,16.86
2023-05-09T16:46:47.398Z,16.71
2023-05-09T16:52:01.095Z,16.55
2023-05-09T16:57:03.638Z,16.36
2023-05-09T17:02:11.898Z,16.15
2023-05-09T17:07:15.692Z,15.93
2023-05-09T17:12:18.439Z,15.74
2023-05-09T17:17:25.755Z,15.58
2023-05-09T17:22:31.063Z,15.41
2023-05-09T17:27:33.959Z,15.24
2023-05-09T17:32:42.325Z,15.05
2023-05-09T17:37:44.544Z,14.80
2023-05-09T17:42:46.945Z,14.59
2023-05-09T17:47:51.973Z,14.38
2023-05-09T17:53:24.222Z,14.18
2023-05-09T17:58:27.791Z,14.00
2023-05-09T18:03:32.356Z,13.80
2023-05-09T18:08:37.636Z,13.57
2023-05-09T18:13:51.773Z,13.32
2023-05-09T18:19:00.177Z,13.13
2023-05-09T18:24:02.740Z,12.92
2023-05-09T18:29:05.678Z,12.73
2023-05-09T18:34:14.029Z,12.55
2023-05-09T18:39:16.317Z,12.41
2023-05-09T18:44:23.566Z,12.25
2023-05-09T18:49:39.349Z,12.10
2023-05-09T18:54:52.610Z,11.89
2023-05-09T18:59:59.208Z,11.70
2023-05-09T19:05:09.492Z,11.51
2023-05-09T19:10:13.643Z,11.40
2023-05-09T19:15:16.186Z,11.31
2023-05-09T19:20:34.838Z,11.20
2023-05-09T19:25:40.388Z,11.08
2023-05-09T19:30:42.834Z,11.01
2023-05-09T19:35:50.355Z,10.93
2023-05-09T19:41:01.634Z,10.83
2023-05-09T19:46:06.923Z,10.79
2023-05-09T19:51:12.472Z,10.71
2023-05-09T19:56:17.697Z,10.61
2023-05-09T20:01:20.252Z,10.54
2023-05-09T20:06:25.865Z,10.54
2023-05-09T20:11:31.273Z,10.58
2023-05-09T20:16:33.496Z,10.65
2023-05-09T20:21:38.845Z,10.72
2023-05-09T20:26:42.325Z,10.77
2023-05-09T20:31:50.408Z,10.78
2023-05-09T20:37:01.674Z,10.78
2023-05-09T20:42:19.597Z,10.81
2023-05-09T20:47:46.634Z,10.80
2023-05-09T20:52:51.665Z,10.80
2023-05-09T20:57:56.667Z,10.76
2023-05-09T21:03:10.240Z,10.68
2023-05-09T21:08:13.146Z,10.61
2023-05-09T21:13:24.412Z,10.58
2023-05-09T21:18:33.380Z,10.51
2023-05-09T21:23:38.487Z,10.47
2023-05-09T21:28:59.083Z,10.44
2023-05-09T21:34:14.105Z,10.38
2023-05-09T21:39:33.438Z,10.34
2023-05-09T21:44:56.303Z,10.29
2023-05-09T21:50:17.766Z,10.20
2023-05-09T21:55:43.423Z,10.08
2023-05-09T22:00:48.566Z,9.88
2023-05-09T22:06:02.236Z,9.72
2023-05-09T22:11:10.996Z,9.54
2023-05-09T22:16:22.399Z,9.35
2023-05-09T22:21:24.994Z,9.18
2023-05-09T22:26:53.251Z,8.99
2023-05-09T22:32:08.508Z,8.76
2023-05-09T22:37:16.779Z,8.58
2023-05-09T22:42:31.634Z,8.40
2023-05-09T22:47:44.633Z,8.26
2023-05-09T22:53:07.332Z,8.15
2023-05-09T22:58:14.738Z,8.04
2023-05-09T23:03:32.226Z,7.96
2023-05-09T23:08:36.104Z,7.87
2023-05-09T23:13:46.023Z,7.77
2023-05-09T23:18:54.496Z,7.68
2023-05-09T23:24:27.008Z,7.59
2023-05-09T23:29:33.240Z,7.52
2023-05-09T23:34:43.559Z,7.44
2023-05-09T23:39:47.335Z,7.35
2023-05-09T23:45:00.763Z,7.28
2023-05-09T23:50:12.307Z,7.21
2023-05-09T23:55:16.962Z,7.14
